createdAt,value
2018-06-10T00:00:31.208Z,13.93
2018-06-10T00:03:00.167Z,12.97
2018-06-10T00:05:29.527Z,12.53
2018-06-10T00:07:58.605Z,15.73
2018-06-10T00:10:27.818Z,14.67
2018-06-10T00:12:56.910Z,14.03
2018-06-10T00:15:26.018Z,14.23
2018-06-10T00:17:55.108Z,13.87
2018-06-10T00:20:24.132Z,11.70
2018-06-10T00:22:53.248Z,13.47
2018-06-10T00:25:22.352Z,14.70
2018-06-10T00:27:51.645Z,15.40
2018-06-10T00:30:21.062Z,16.10
2018-06-10T00:32:50.194Z,16.07
2018-06-10T00:35:19.297Z,14.70
2018-06-10T00:37:48.690Z,16.03
2018-06-10T00:40:17.774Z,14.70
2018-06-10T00:42:47.219Z,14.10
2018-06-10T00:45:16.647Z,14.93
2018-06-10T00:47:45.756Z,14.50
2018-06-10T00:50:14.965Z,14.20
2018-06-10T00:52:44.008Z,14.23
2018-06-10T00:55:13.148Z,16.00
2018-06-10T00:57:42.495Z,16.83
2018-06-10T01:00:11.617Z,16.30
2018-06-10T01:02:40.736Z,16.37
2018-06-10T01:05:10.072Z,16.03
2018-06-10T01:07:39.542Z,15.87
2018-06-10T01:10:09.548Z,16.40
2018-06-10T01:12:38.878Z,15.70
2018-06-10T01:15:08.570Z,15.80
2018-06-10T01:17:37.670Z,13.17
2018-06-10T01:20:07.036Z,16.27
2018-06-10T01:22:36.147Z,16.90
2018-06-10T01:25:05.260Z,15.50
2018-06-10T01:27:34.341Z,17.70
2018-06-10T01:30:03.666Z,16.50
2018-06-10T01:32:33.192Z,16.60
2018-06-10T01:35:02.357Z,17.20
2018-06-10T01:37:31.425Z,18.93
2018-06-10T01:40:00.582Z,17.90
2018-06-10T01:42:29.745Z,18.80
2018-06-10T01:44:59.154Z,19.00
2018-06-10T01:47:28.221Z,15.90
2018-06-10T01:49:57.873Z,17.30
2018-06-10T01:52:27.473Z,18.53
2018-06-10T01:54:56.560Z,17.60
2018-06-10T01:57:25.647Z,20.00
2018-06-10T01:59:55.011Z,16.33
2018-06-10T02:02:24.336Z,18.53
2018-06-10T02:04:53.510Z,16.80
2018-06-10T02:07:22.601Z,18.33
2018-06-10T02:09:51.964Z,17.87
2018-06-10T02:12:21.574Z,18.40
2018-06-10T02:14:50.644Z,19.10
2018-06-10T02:17:20.289Z,20.10
2018-06-10T02:19:49.397Z,20.40
2018-06-10T02:22:18.575Z,18.23
2018-06-10T02:24:47.813Z,21.70
2018-06-10T02:27:16.924Z,20.13
2018-06-10T02:29:46.567Z,20.23
2018-06-10T02:32:15.671Z,20.60
2018-06-10T02:34:44.812Z,21.33
2018-06-10T02:37:14.059Z,19.20
2018-06-10T02:39:43.153Z,20.87
2018-06-10T02:42:12.228Z,19.70
2018-06-10T02:44:41.322Z,19.50
2018-06-10T02:47:10.468Z,19.67
2018-06-10T02:49:39.546Z,19.90
2018-06-10T02:52:08.715Z,19.23
2018-06-10T02:54:37.812Z,20.80
2018-06-10T02:57:06.928Z,19.40
2018-06-10T02:59:36.034Z,19.40
2018-06-10T03:02:05.128Z,19.93
2018-06-10T03:04:34.310Z,20.57
2018-06-10T03:07:03.406Z,19.57
2018-06-10T03:09:32.629Z,19.90
2018-06-10T03:12:01.721Z,20.73
2018-06-10T03:14:30.899Z,19.37
2018-06-10T03:17:00.178Z,21.47
2018-06-10T03:19:29.581Z,20.27
2018-06-10T03:21:58.628Z,21.73
2018-06-10T03:24:27.744Z,20.50
2018-06-10T03:26:56.798Z,21.97
2018-06-10T03:29:25.850Z,21.37
2018-06-10T03:31:54.928Z,20.43
2018-06-10T03:34:24.028Z,19.00
2018-06-10T03:36:53.429Z,20.50
2018-06-10T03:39:22.532Z,18.53
2018-06-10T03:41:51.617Z,16.37
2018-06-10T03:44:20.917Z,17.40
2018-06-10T03:46:50.012Z,19.10
2018-06-10T03:49:19.094Z,19.43
2018-06-10T03:51:48.173Z,18.67
2018-06-10T03:54:17.261Z,17.70
2018-06-10T03:56:46.337Z,19.73
2018-06-10T03:59:15.404Z,20.07
2018-06-10T04:01:45.138Z,17.53
2018-06-10T04:04:14.201Z,18.30
2018-06-10T04:06:43.273Z,17.63
2018-06-10T04:09:12.739Z,18.47
2018-06-10T04:11:41.833Z,17.00
2018-06-10T04:14:10.907Z,17.70
2018-06-10T04:16:40.329Z,18.97
2018-06-10T04:19:09.616Z,19.43
2018-06-10T04:21:38.982Z,20.13
2018-06-10T04:24:08.414Z,19.27
2018-06-10T04:26:37.492Z,18.30
2018-06-10T04:29:06.641Z,17.50
2018-06-10T04:31:36.169Z,16.87
2018-06-10T04:34:05.529Z,18.60
2018-06-10T04:36:34.885Z,18.60
2018-06-10T04:39:05.703Z,19.03
2018-06-10T04:41:35.127Z,17.67
2018-06-10T04:44:04.245Z,17.93
2018-06-10T04:46:33.553Z,18.93
2018-06-10T04:49:02.910Z,18.70
2018-06-10T04:51:32.269Z,20.50
2018-06-10T04:54:01.382Z,19.67
2018-06-10T04:56:30.723Z,20.40
2018-06-10T04:58:59.780Z,20.13
2018-06-10T05:01:29.162Z,20.53
2018-06-10T05:03:58.210Z,20.23
2018-06-10T05:06:27.558Z,21.27
2018-06-10T05:08:56.765Z,20.77
2018-06-10T05:11:25.845Z,20.70
2018-06-10T05:13:54.934Z,20.90
2018-06-10T05:16:24.916Z,21.03
2018-06-10T05:18:53.889Z,19.30
2018-06-10T05:21:23.214Z,19.00
2018-06-10T05:23:52.408Z,19.80
2018-06-10T05:26:21.467Z,16.33
2018-06-10T05:28:50.496Z,17.47
2018-06-10T05:31:19.923Z,17.07
2018-06-10T05:33:49.036Z,18.00
2018-06-10T05:36:18.096Z,17.33
2018-06-10T05:38:48.321Z,17.97
2018-06-10T05:41:17.497Z,17.33
2018-06-10T05:43:47.137Z,16.03
2018-06-10T05:46:16.533Z,18.27
2018-06-10T05:48:45.721Z,18.13
2018-06-10T05:51:14.781Z,21.30
2018-06-10T05:53:43.881Z,18.60
2018-06-10T05:56:12.976Z,21.30
2018-06-10T05:58:42.033Z,19.60
2018-06-10T06:01:11.950Z,19.70
2018-06-10T06:03:41.038Z,16.30
2018-06-10T06:06:10.416Z,18.67
2018-06-10T06:08:39.536Z,17.63
2018-06-10T06:11:08.884Z,17.80
2018-06-10T06:13:38.197Z,16.90
2018-06-10T06:16:07.884Z,18.87
2018-06-10T06:18:37.217Z,16.37
2018-06-10T06:21:06.397Z,16.07
2018-06-10T06:23:35.746Z,17.47
2018-06-10T06:26:05.097Z,15.40
2018-06-10T06:28:34.212Z,14.40
2018-06-10T06:31:03.313Z,14.20
2018-06-10T06:33:32.402Z,13.83
2018-06-10T06:36:01.498Z,12.90
2018-06-10T06:38:31.718Z,14.00
2018-06-10T06:41:00.845Z,13.20
2018-06-10T06:43:30.341Z,13.50
2018-06-10T06:45:59.492Z,12.93
2018-06-10T06:48:29.346Z,12.80
2018-06-10T06:50:58.447Z,12.20
2018-06-10T06:53:27.573Z,11.70
2018-06-10T06:55:56.848Z,11.77
2018-06-10T06:58:25.925Z,10.80
2018-06-10T07:00:58.349Z,11.47
2018-06-10T07:03:27.829Z,11.00
2018-06-10T07:05:57.417Z,10.70
2018-06-10T07:08:26.473Z,11.30
2018-06-10T07:10:55.745Z,11.87
2018-06-10T07:13:25.164Z,10.93
2018-06-10T07:15:54.242Z,11.80
2018-06-10T07:18:23.591Z,11.93
2018-06-10T07:20:52.681Z,11.63
2018-06-10T07:23:21.837Z,12.00
2018-06-10T07:25:51.024Z,11.20
2018-06-10T07:28:20.172Z,11.03
2018-06-10T07:30:49.257Z,12.40
2018-06-10T07:33:18.399Z,12.53
2018-06-10T07:35:47.850Z,11.60
2018-06-10T07:38:16.980Z,10.97
2018-06-10T07:40:46.261Z,11.97
2018-06-10T07:43:15.357Z,12.40
2018-06-10T07:45:44.433Z,11.37
2018-06-10T07:48:13.563Z,11.30
2018-06-10T07:50:42.707Z,11.90
2018-06-10T07:53:11.814Z,12.23
2018-06-10T07:55:40.942Z,11.40
2018-06-10T07:58:10.062Z,11.27
2018-06-10T08:00:39.558Z,12.70
2018-06-10T08:03:08.845Z,11.20
2018-06-10T08:05:37.945Z,11.47
2018-06-10T08:08:07.022Z,11.30
2018-06-10T08:10:36.070Z,10.60
2018-06-10T08:13:05.175Z,10.30
2018-06-10T08:15:34.351Z,10.10
2018-06-10T08:18:03.426Z,9.13
2018-06-10T08:20:32.505Z,10.00
2018-06-10T08:23:01.628Z,9.83
2018-06-10T08:25:31.161Z,9.40
2018-06-10T08:28:00.535Z,9.70
2018-06-10T08:30:29.586Z,9.67
2018-06-10T08:32:58.630Z,10.00
2018-06-10T08:35:28.002Z,9.00
2018-06-10T08:37:57.520Z,9.20
2018-06-10T08:40:26.812Z,8.90
2018-06-10T08:42:55.923Z,9.43
2018-06-10T08:45:25.477Z,9.43
2018-06-10T08:47:54.605Z,9.87
2018-06-10T08:50:23.944Z,9.90
2018-06-10T08:52:53.025Z,9.83
2018-06-10T08:55:22.772Z,10.43
2018-06-10T08:57:51.944Z,10.03
2018-06-10T09:00:21.274Z,10.30
2018-06-10T09:02:50.594Z,9.20
2018-06-10T09:05:19.672Z,10.40
2018-06-10T09:07:48.722Z,10.20
2018-06-10T09:10:17.769Z,8.73
2018-06-10T09:12:47.368Z,10.60
2018-06-10T09:15:16.678Z,10.00
2018-06-10T09:17:47.713Z,9.20
2018-06-10T09:20:17.722Z,8.47
2018-06-10T09:22:46.841Z,8.13
2018-06-10T09:25:15.953Z,8.80
2018-06-10T09:27:45.011Z,8.40
2018-06-10T09:30:14.151Z,8.70
2018-06-10T09:32:43.212Z,8.50
2018-06-10T09:35:12.642Z,9.33
2018-06-10T09:37:41.930Z,9.30
2018-06-10T09:40:11.464Z,9.47
2018-06-10T09:42:40.751Z,9.40
2018-06-10T09:45:09.833Z,9.20
2018-06-10T09:47:38.869Z,9.20
2018-06-10T09:50:07.960Z,8.60
2018-06-10T09:52:37.857Z,8.97
2018-06-10T09:55:06.988Z,9.60
2018-06-10T09:57:35.976Z,9.07
2018-06-10T10:00:05.090Z,10.33
2018-06-10T10:02:34.809Z,9.60
2018-06-10T10:05:04.142Z,9.63
2018-06-10T10:07:33.433Z,9.53
2018-06-10T10:10:02.693Z,10.00
2018-06-10T10:12:31.959Z,10.50
2018-06-10T10:15:01.065Z,10.60
2018-06-10T10:17:30.165Z,10.50
2018-06-10T10:19:59.261Z,10.80
2018-06-10T10:22:28.345Z,10.23
2018-06-10T10:24:57.668Z,11.13
2018-06-10T10:27:26.982Z,10.30
2018-06-10T10:29:56.286Z,10.70
2018-06-10T10:32:25.377Z,11.57
2018-06-10T10:34:54.549Z,11.03
2018-06-10T10:37:23.651Z,10.00
2018-06-10T10:39:52.927Z,9.70
2018-06-10T10:42:22.254Z,10.90
2018-06-10T10:44:52.041Z,10.90
2018-06-10T10:47:21.129Z,10.70
2018-06-10T10:49:50.241Z,10.30
2018-06-10T10:52:19.475Z,11.20
2018-06-10T10:54:48.577Z,11.07
2018-06-10T10:57:17.693Z,11.40
2018-06-10T10:59:46.752Z,10.50
2018-06-10T11:02:15.830Z,10.20
2018-06-10T11:04:44.942Z,10.70
2018-06-10T11:07:13.997Z,10.83
2018-06-10T11:09:43.072Z,10.90
2018-06-10T11:12:12.431Z,11.03
2018-06-10T11:14:41.492Z,10.50
2018-06-10T11:17:10.614Z,10.33
2018-06-10T11:19:39.745Z,10.10
2018-06-10T11:22:09.116Z,11.67
2018-06-10T11:24:38.465Z,10.90
2018-06-10T11:27:07.612Z,10.90
2018-06-10T11:29:36.856Z,10.60
2018-06-10T11:32:05.928Z,10.20
2018-06-10T11:34:35.473Z,9.63
2018-06-10T11:37:05.350Z,8.90
2018-06-10T11:39:34.831Z,7.60
2018-06-10T11:42:03.926Z,8.43
2018-06-10T11:44:33.214Z,7.83
2018-06-10T11:47:02.523Z,6.80
2018-06-10T11:49:31.851Z,7.87
2018-06-10T11:52:01.251Z,7.60
2018-06-10T11:54:30.587Z,7.90
2018-06-10T11:56:59.894Z,8.70
2018-06-10T11:59:29.003Z,6.97
2018-06-10T12:01:58.418Z,7.53
2018-06-10T12:04:27.526Z,6.73
2018-06-10T12:06:56.860Z,6.97
2018-06-10T12:09:25.937Z,7.30
2018-06-10T12:11:55.556Z,6.83
2018-06-10T12:14:25.053Z,7.30
2018-06-10T12:16:54.238Z,6.20
2018-06-10T12:19:23.321Z,6.67
2018-06-10T12:21:52.414Z,5.97
2018-06-10T12:24:21.690Z,5.87
2018-06-10T12:26:50.801Z,5.87
2018-06-10T12:29:19.896Z,6.90
2018-06-10T12:31:49.182Z,6.10
2018-06-10T12:34:18.307Z,6.63
2018-06-10T12:36:47.578Z,5.90
2018-06-10T12:39:16.647Z,6.43
2018-06-10T12:41:45.957Z,6.47
2018-06-10T12:44:15.014Z,6.63
2018-06-10T12:46:44.069Z,6.60
2018-06-10T12:49:13.247Z,6.33
2018-06-10T12:51:42.259Z,6.00
2018-06-10T12:54:11.577Z,6.17
2018-06-10T12:56:40.674Z,6.60
2018-06-10T12:59:09.977Z,6.90
2018-06-10T13:01:39.283Z,6.90
2018-06-10T13:04:09.748Z,6.93
2018-06-10T13:06:38.833Z,6.70
2018-06-10T13:09:08.651Z,7.70
2018-06-10T13:11:37.764Z,7.87
2018-06-10T13:14:06.847Z,8.10
2018-06-10T13:16:35.943Z,8.33
2018-06-10T13:19:05.832Z,8.87
2018-06-10T13:21:34.896Z,8.20
2018-06-10T13:24:04.695Z,8.93
2018-06-10T13:26:33.762Z,7.93
2018-06-10T13:29:03.057Z,9.20
2018-06-10T13:31:32.407Z,8.90
2018-06-10T13:34:01.689Z,8.50
2018-06-10T13:36:30.764Z,9.00
2018-06-10T13:39:00.110Z,8.87
2018-06-10T13:41:29.258Z,8.23
2018-06-10T13:43:58.378Z,8.57
2018-06-10T13:46:27.488Z,7.83
2018-06-10T13:48:56.863Z,8.30
2018-06-10T13:51:25.935Z,7.93
2018-06-10T13:53:55.249Z,8.00
2018-06-10T13:56:24.318Z,8.60
2018-06-10T13:58:53.593Z,7.73
2018-06-10T14:01:22.976Z,8.40
2018-06-10T14:03:52.037Z,9.00
2018-06-10T14:06:21.129Z,8.03
2018-06-10T14:08:50.419Z,8.00
2018-06-10T14:11:19.716Z,8.60
2018-06-10T14:13:49.005Z,8.40
2018-06-10T14:16:18.184Z,9.03
2018-06-10T14:18:47.271Z,9.67
2018-06-10T14:21:16.346Z,10.00
2018-06-10T14:23:45.441Z,9.23
2018-06-10T14:26:14.518Z,9.80
2018-06-10T14:28:43.636Z,9.77
2018-06-10T14:31:13.017Z,10.53
2018-06-10T14:33:42.110Z,10.17
2018-06-10T14:36:11.478Z,9.50
2018-06-10T14:38:40.595Z,9.97
2018-06-10T14:41:09.865Z,9.13
2018-06-10T14:43:38.957Z,9.70
2018-06-10T14:46:08.042Z,8.37
2018-06-10T14:48:37.080Z,8.80
2018-06-10T14:51:06.380Z,8.83
2018-06-10T14:53:35.496Z,8.80
2018-06-10T14:56:04.849Z,8.40
2018-06-10T14:58:33.903Z,8.80
2018-06-10T15:01:03.305Z,10.90
2018-06-10T15:03:32.563Z,10.23
2018-06-10T15:06:01.967Z,11.80
2018-06-10T15:08:31.058Z,10.97
2018-06-10T15:11:00.343Z,14.50
2018-06-10T15:13:29.494Z,11.83
2018-06-10T15:15:58.576Z,12.40
2018-06-10T15:18:27.864Z,10.73
2018-06-10T15:20:56.960Z,11.70
2018-06-10T15:23:26.305Z,11.07
2018-06-10T15:25:55.400Z,10.30
2018-06-10T15:28:24.450Z,10.33
2018-06-10T15:30:53.534Z,10.10
2018-06-10T15:33:22.846Z,11.23
2018-06-10T15:35:51.944Z,12.63
2018-06-10T15:38:21.230Z,12.53
2018-06-10T15:40:50.289Z,12.93
2018-06-10T15:43:19.347Z,11.73
2018-06-10T15:45:48.465Z,15.33
2018-06-10T15:48:17.574Z,13.17
2018-06-10T15:50:46.657Z,14.50
2018-06-10T15:53:15.731Z,14.20
2018-06-10T15:55:44.805Z,14.37
2018-06-10T15:58:13.890Z,14.07
2018-06-10T16:00:42.967Z,14.80
2018-06-10T16:03:12.033Z,14.43
2018-06-10T16:05:41.089Z,15.33
2018-06-10T16:08:10.168Z,15.37
2018-06-10T16:10:39.445Z,17.23
2018-06-10T16:13:08.963Z,13.10
2018-06-10T16:15:38.083Z,17.30
2018-06-10T16:18:07.148Z,15.50
2018-06-10T16:20:36.213Z,16.00
2018-06-10T16:23:05.321Z,14.70
2018-06-10T16:25:34.625Z,15.93
2018-06-10T16:28:03.702Z,16.00
2018-06-10T16:30:33.464Z,15.53
2018-06-10T16:33:02.972Z,13.83
2018-06-10T16:35:32.067Z,12.73
2018-06-10T16:38:01.194Z,14.37
2018-06-10T16:40:30.353Z,12.97
2018-06-10T16:43:01.841Z,14.73
2018-06-10T16:45:30.958Z,14.60
2018-06-10T16:48:00.045Z,16.73
2018-06-10T16:50:29.416Z,14.50
2018-06-10T16:52:58.497Z,16.13
2018-06-10T16:55:27.827Z,16.20
2018-06-10T16:57:57.169Z,14.77
2018-06-10T17:00:27.139Z,14.93
2018-06-10T17:02:56.489Z,15.50
2018-06-10T17:05:25.994Z,15.33
2018-06-10T17:07:55.065Z,15.80
2018-06-10T17:10:24.165Z,22.20
2018-06-10T17:12:53.355Z,14.80
2018-06-10T17:15:22.653Z,13.97
2018-06-10T17:17:51.835Z,12.80
2018-06-10T17:20:21.263Z,12.77
2018-06-10T17:22:50.736Z,13.83
2018-06-10T17:25:20.218Z,24.10
2018-06-10T17:27:49.511Z,20.10
2018-06-10T17:30:18.848Z,15.47
2018-06-10T17:32:48.054Z,27.50
2018-06-10T17:35:17.160Z,16.33
2018-06-10T17:37:46.301Z,14.83
2018-06-10T17:40:15.983Z,14.53
2018-06-10T17:42:45.079Z,15.20
2018-06-10T17:45:14.166Z,14.10
2018-06-10T17:47:43.355Z,14.93
2018-06-10T17:50:12.448Z,15.20
2018-06-10T17:52:42.035Z,13.37
2018-06-10T17:55:11.165Z,14.10
2018-06-10T17:57:40.573Z,13.50
2018-06-10T18:00:09.797Z,12.87
2018-06-10T18:02:38.940Z,15.00
2018-06-10T18:05:08.281Z,13.80
2018-06-10T18:07:37.690Z,13.50
2018-06-10T18:10:07.025Z,14.17
2018-06-10T18:12:36.724Z,15.90
2018-06-10T18:15:05.985Z,13.33
2018-06-10T18:17:35.057Z,14.77
2018-06-10T18:20:04.351Z,14.43
2018-06-10T18:22:33.675Z,13.10
2018-06-10T18:25:02.991Z,13.33
2018-06-10T18:27:32.050Z,13.37
2018-06-10T18:30:01.387Z,13.07
2018-06-10T18:32:30.562Z,13.40
2018-06-10T18:35:00.379Z,13.20
2018-06-10T18:37:29.457Z,12.20
2018-06-10T18:39:58.509Z,15.47
2018-06-10T18:42:27.926Z,13.93
2018-06-10T18:44:57.049Z,15.53
2018-06-10T18:47:26.236Z,19.13
2018-06-10T18:49:55.314Z,11.87
2018-06-10T18:52:24.377Z,13.70
2018-06-10T18:54:53.498Z,15.60
2018-06-10T18:57:22.619Z,13.43
2018-06-10T18:59:51.940Z,14.37
2018-06-10T19:02:21.234Z,13.97
2018-06-10T19:04:50.528Z,14.60
2018-06-10T19:07:19.833Z,13.40
2018-06-10T19:09:48.935Z,15.80
2018-06-10T19:12:18.054Z,12.93
2018-06-10T19:14:47.135Z,14.40
2018-06-10T19:17:16.458Z,16.23
2018-06-10T19:19:45.657Z,21.93
2018-06-10T19:22:14.981Z,17.30
2018-06-10T19:24:44.091Z,17.27
2018-06-10T19:27:13.224Z,17.30
2018-06-10T19:29:42.395Z,15.47
2018-06-10T19:32:11.816Z,16.00
2018-06-10T19:34:41.047Z,15.00
2018-06-10T19:37:10.121Z,16.03
2018-06-10T19:39:39.456Z,20.33
2018-06-10T19:42:08.744Z,18.50
2018-06-10T19:44:38.189Z,17.00
2018-06-10T19:47:07.283Z,15.03
2018-06-10T19:49:36.400Z,15.50
2018-06-10T19:52:05.503Z,14.43
2018-06-10T19:54:34.668Z,15.03
2018-06-10T19:57:03.779Z,14.57
2018-06-10T19:59:32.933Z,15.30
2018-06-10T20:02:02.261Z,16.03
2018-06-10T20:04:31.614Z,18.80
2018-06-10T20:07:01.004Z,18.07
2018-06-10T20:09:30.052Z,16.70
2018-06-10T20:11:59.189Z,16.20
2018-06-10T20:14:28.328Z,15.90
2018-06-10T20:16:57.401Z,14.67
2018-06-10T20:19:26.725Z,13.47
2018-06-10T20:21:55.841Z,13.70
2018-06-10T20:24:25.148Z,13.30
2018-06-10T20:26:54.433Z,13.90
2018-06-10T20:29:23.791Z,14.27
2018-06-10T20:31:53.090Z,14.30
2018-06-10T20:34:22.188Z,14.13
2018-06-10T20:36:51.421Z,15.17
2018-06-10T20:39:20.946Z,15.67
2018-06-10T20:41:50.073Z,23.60
2018-06-10T20:44:19.340Z,15.63
2018-06-10T20:46:48.429Z,14.43
2018-06-10T20:49:17.597Z,13.97
2018-06-10T20:51:46.776Z,14.90
2018-06-10T20:54:15.888Z,15.27
2018-06-10T20:56:45.025Z,14.47
2018-06-10T20:59:14.304Z,14.53
2018-06-10T21:01:43.532Z,13.97
2018-06-10T21:04:13.029Z,14.50
2018-06-10T21:06:42.189Z,12.50
2018-06-10T21:09:11.245Z,12.07
2018-06-10T21:11:40.667Z,12.03
2018-06-10T21:14:10.059Z,12.50
2018-06-10T21:16:39.229Z,13.53
2018-06-10T21:19:08.413Z,12.67
2018-06-10T21:21:37.477Z,13.17
2018-06-10T21:24:06.613Z,11.53
2018-06-10T21:26:35.842Z,11.87
2018-06-10T21:29:05.113Z,11.20
2018-06-10T21:31:34.301Z,11.77
2018-06-10T21:34:03.441Z,10.60
2018-06-10T21:36:32.556Z,10.03
2018-06-10T21:39:01.826Z,11.13
2018-06-10T21:41:30.997Z,11.83
2018-06-10T21:44:00.089Z,11.27
2018-06-10T21:46:29.168Z,10.03
2018-06-10T21:48:58.287Z,10.37
2018-06-10T21:51:27.383Z,10.43
2018-06-10T21:53:56.457Z,11.07
2018-06-10T21:56:25.765Z,10.40
2018-06-10T21:58:54.857Z,10.20
2018-06-10T22:01:25.021Z,10.10
2018-06-10T22:03:54.884Z,10.70
2018-06-10T22:06:24.202Z,10.50
2018-06-10T22:08:53.246Z,10.43
2018-06-10T22:11:22.377Z,10.87
2018-06-10T22:13:51.713Z,11.03
2018-06-10T22:16:20.889Z,11.23
2018-06-10T22:18:50.184Z,11.53
2018-06-10T22:21:19.244Z,11.03
2018-06-10T22:23:48.592Z,10.83
2018-06-10T22:26:18.168Z,10.60
2018-06-10T22:28:47.245Z,11.93
2018-06-10T22:31:16.561Z,10.33
2018-06-10T22:33:45.709Z,11.73
2018-06-10T22:36:15.529Z,11.33
2018-06-10T22:38:45.531Z,10.50
2018-06-10T22:41:19.834Z,13.20
2018-06-10T22:43:57.651Z,10.03
2018-06-10T22:46:28.850Z,13.33
2018-06-10T22:48:59.561Z,11.67
2018-06-10T22:51:29.932Z,9.17
2018-06-10T22:54:10.742Z,11.30
2018-06-10T22:56:42.497Z,8.87
2018-06-10T22:59:11.851Z,10.37
2018-06-10T23:01:43.369Z,12.00
2018-06-10T23:04:12.762Z,11.30
2018-06-10T23:06:41.837Z,12.77
2018-06-10T23:09:14.093Z,13.93
2018-06-10T23:11:43.336Z,15.07
2018-06-10T23:14:12.621Z,11.83
2018-06-10T23:16:41.725Z,12.37
2018-06-10T23:19:10.803Z,12.07
2018-06-10T23:21:39.874Z,10.10
2018-06-10T23:24:12.336Z,12.17
2018-06-10T23:26:41.811Z,11.80
2018-06-10T23:29:11.114Z,11.37
2018-06-10T23:31:40.175Z,12.30
2018-06-10T23:34:09.245Z,12.00
2018-06-10T23:36:48.534Z,12.90
2018-06-10T23:39:19.520Z,12.23
2018-06-10T23:41:49.756Z,11.83
2018-06-10T23:44:19.129Z,13.70
2018-06-10T23:46:48.398Z,13.10
2018-06-10T23:49:17.490Z,14.50
2018-06-10T23:51:46.586Z,12.73
2018-06-10T23:54:15.885Z,14.30
2018-06-10T23:56:44.963Z,13.20
2018-06-10T23:59:14.039Z,12.17
